createdAt,value
2023-02-24T00:00:33.924Z,4.77
2023-02-24T00:03:06.356Z,5.53
2023-02-24T00:05:35.755Z,4.57
2023-02-24T00:08:03.988Z,4.97
2023-02-24T00:10:33.925Z,5.10
2023-02-24T00:13:02.197Z,4.73
2023-02-24T00:15:30.425Z,4.90
2023-02-24T00:17:59.292Z,5.23
2023-02-24T00:20:27.513Z,4.60
2023-02-24T00:22:55.779Z,5.17
2023-02-24T00:25:23.992Z,5.10
2023-02-24T00:27:55.626Z,4.90
2023-02-24T00:30:24.126Z,4.97
2023-02-24T00:32:52.435Z,4.90
2023-02-24T00:35:20.703Z,4.70
2023-02-24T00:37:54.322Z,4.93
2023-02-24T00:40:24.034Z,4.60
2023-02-24T00:42:54.075Z,4.77
2023-02-24T00:45:22.286Z,5.07
2023-02-24T00:47:50.566Z,4.80
2023-02-24T00:50:19.098Z,5.00
2023-02-24T00:52:47.342Z,5.00
2023-02-24T00:55:15.841Z,5.30
2023-02-24T00:57:44.964Z,5.40
2023-02-24T01:00:16.611Z,4.83
2023-02-24T01:02:47.146Z,4.70
2023-02-24T01:05:15.915Z,5.47
2023-02-24T01:07:44.178Z,4.30
2023-02-24T01:10:13.376Z,5.13
2023-02-24T01:12:49.730Z,4.33
2023-02-24T01:15:20.655Z,3.83
2023-02-24T01:17:49.034Z,4.63
2023-02-24T01:20:18.379Z,4.20
2023-02-24T01:22:47.762Z,4.13
2023-02-24T01:25:16.232Z,4.20
2023-02-24T01:27:44.997Z,4.10
2023-02-24T01:30:16.150Z,3.60
2023-02-24T01:32:47.355Z,4.17
2023-02-24T01:35:15.859Z,4.27
2023-02-24T01:37:45.232Z,4.17
2023-02-24T01:40:21.162Z,4.53
2023-02-24T01:42:49.715Z,3.80
2023-02-24T01:45:21.237Z,4.60
2023-02-24T01:47:51.074Z,3.77
2023-02-24T01:50:21.634Z,3.87
2023-02-24T01:52:52.351Z,4.27
2023-02-24T01:55:23.261Z,3.80
2023-02-24T01:57:53.400Z,4.43
2023-02-24T02:00:38.837Z,4.17
2023-02-24T02:03:11.560Z,3.90
2023-02-24T02:05:41.162Z,3.90
2023-02-24T02:08:10.329Z,3.70
2023-02-24T02:10:39.699Z,3.53
2023-02-24T02:13:08.048Z,3.70
2023-02-24T02:15:41.954Z,3.50
2023-02-24T02:18:17.014Z,3.70
2023-02-24T02:21:00.594Z,3.60
2023-02-24T02:23:41.841Z,3.93
2023-02-24T02:26:19.908Z,4.10
2023-02-24T02:28:57.172Z,3.40
2023-02-24T02:31:33.201Z,3.77
2023-02-24T02:34:14.461Z,3.63
2023-02-24T02:36:48.718Z,4.03
2023-02-24T02:39:20.260Z,4.17
2023-02-24T02:41:52.026Z,3.50
2023-02-24T02:44:22.763Z,4.17
2023-02-24T02:46:52.507Z,4.10
2023-02-24T02:49:23.396Z,4.00
2023-02-24T02:51:53.736Z,4.37
2023-02-24T02:54:27.360Z,4.00
2023-02-24T02:56:59.883Z,3.80
2023-02-24T02:59:29.565Z,4.37
2023-02-24T03:02:01.240Z,3.73
2023-02-24T03:04:31.362Z,3.70
2023-02-24T03:07:02.199Z,4.30
2023-02-24T03:09:32.018Z,3.70
2023-02-24T03:12:02.178Z,3.20
2023-02-24T03:14:31.147Z,3.57
2023-02-24T03:17:04.520Z,3.80
2023-02-24T03:19:37.260Z,4.07
2023-02-24T03:22:09.263Z,3.60
2023-02-24T03:24:39.005Z,3.70
2023-02-24T03:27:10.279Z,4.00
2023-02-24T03:29:41.559Z,4.40
2023-02-24T03:32:12.261Z,4.13
2023-02-24T03:34:47.248Z,3.70
2023-02-24T03:37:15.574Z,4.40
2023-02-24T03:39:46.767Z,3.73
2023-02-24T03:42:18.081Z,4.53
2023-02-24T03:44:46.454Z,4.00
2023-02-24T03:47:15.815Z,3.47
2023-02-24T03:49:45.359Z,3.80
2023-02-24T03:52:21.419Z,3.37
2023-02-24T03:54:59.518Z,3.13
2023-02-24T03:57:31.102Z,3.07
2023-02-24T04:00:20.360Z,3.50
2023-02-24T04:02:51.697Z,3.30
2023-02-24T04:05:22.814Z,3.30
2023-02-24T04:07:54.331Z,3.33
2023-02-24T04:10:24.606Z,2.70
2023-02-24T04:12:55.315Z,3.27
2023-02-24T04:15:25.389Z,3.17
2023-02-24T04:17:57.448Z,3.17
2023-02-24T04:20:29.465Z,3.47
2023-02-24T04:22:59.711Z,3.60
2023-02-24T04:25:28.613Z,3.37
2023-02-24T04:27:59.238Z,3.13
2023-02-24T04:30:29.678Z,3.10
2023-02-24T04:32:58.068Z,2.70
2023-02-24T04:35:28.780Z,2.90
2023-02-24T04:37:57.539Z,3.60
2023-02-24T04:40:25.817Z,3.80
2023-02-24T04:42:55.174Z,4.60
2023-02-24T04:45:25.645Z,4.50
2023-02-24T04:47:56.153Z,4.40
2023-02-24T04:50:25.866Z,4.40
2023-02-24T04:52:56.570Z,4.17
2023-02-24T04:55:26.499Z,3.40
2023-02-24T04:57:55.034Z,3.50
2023-02-24T05:00:26.435Z,3.20
2023-02-24T05:02:56.352Z,2.90
2023-02-24T05:05:27.002Z,3.03
2023-02-24T05:07:57.378Z,3.10
2023-02-24T05:10:27.985Z,4.10
2023-02-24T05:12:58.124Z,3.27
2023-02-24T05:15:31.261Z,3.00
2023-02-24T05:18:01.026Z,3.27
2023-02-24T05:20:46.831Z,3.40
2023-02-24T05:23:17.460Z,3.07
2023-02-24T05:25:46.315Z,3.30
2023-02-24T05:28:15.774Z,2.90
2023-02-24T05:30:44.268Z,3.00
2023-02-24T05:33:13.649Z,2.53
2023-02-24T05:35:42.011Z,3.03
2023-02-24T05:38:10.647Z,3.17
2023-02-24T05:40:46.402Z,2.63
2023-02-24T05:43:18.111Z,3.03
2023-02-24T05:45:46.439Z,9.77
2023-02-24T05:48:15.566Z,3.00
2023-02-24T05:50:46.232Z,2.67
2023-02-24T05:53:15.221Z,2.90
2023-02-24T05:55:45.022Z,3.07
2023-02-24T05:58:16.432Z,3.17
2023-02-24T06:00:46.321Z,3.23
2023-02-24T06:03:17.612Z,2.93
2023-02-24T06:05:45.979Z,2.90
2023-02-24T06:08:14.189Z,3.03
2023-02-24T06:10:47.365Z,3.07
2023-02-24T06:13:17.039Z,2.87
2023-02-24T06:15:50.389Z,3.27
2023-02-24T06:18:18.784Z,3.20
2023-02-24T06:20:51.228Z,3.03
2023-02-24T06:23:19.531Z,2.73
2023-02-24T06:25:47.761Z,3.13
2023-02-24T06:28:19.902Z,2.70
2023-02-24T06:30:48.187Z,2.67
2023-02-24T06:33:16.420Z,2.97
2023-02-24T06:35:44.608Z,3.00
2023-02-24T06:38:13.078Z,3.23
2023-02-24T06:40:42.573Z,3.27
2023-02-24T06:43:11.036Z,3.67
2023-02-24T06:45:40.971Z,4.27
2023-02-24T06:48:09.466Z,4.00
2023-02-24T06:50:38.058Z,3.87
2023-02-24T06:53:10.360Z,3.60
2023-02-24T06:55:38.600Z,3.53
2023-02-24T06:58:07.056Z,3.43
2023-02-24T07:00:39.343Z,2.67
2023-02-24T07:03:16.699Z,3.40
2023-02-24T07:05:50.157Z,3.23
2023-02-24T07:08:19.170Z,3.50
2023-02-24T07:10:48.338Z,3.40
2023-02-24T07:13:16.569Z,3.37
2023-02-24T07:15:49.101Z,3.23
2023-02-24T07:18:19.152Z,3.07
2023-02-24T07:20:47.921Z,3.70
2023-02-24T07:23:16.223Z,3.10
2023-02-24T07:25:46.460Z,4.53
2023-02-24T07:28:15.125Z,3.20
2023-02-24T07:30:43.789Z,3.30
2023-02-24T07:33:12.157Z,3.37
2023-02-24T07:35:42.359Z,3.60
2023-02-24T07:38:10.569Z,3.77
2023-02-24T07:40:40.764Z,3.83
2023-02-24T07:43:09.010Z,3.90
2023-02-24T07:45:37.307Z,3.20
2023-02-24T07:48:05.543Z,3.00
2023-02-24T07:50:36.609Z,2.97
2023-02-24T07:53:06.234Z,2.87
2023-02-24T07:55:36.150Z,3.03
2023-02-24T07:58:05.796Z,3.20
2023-02-24T08:00:51.179Z,3.07
2023-02-24T08:03:19.405Z,3.27
2023-02-24T08:05:47.656Z,3.00
2023-02-24T08:08:21.052Z,3.17
2023-02-24T08:10:49.336Z,3.17
2023-02-24T08:13:19.137Z,2.77
2023-02-24T08:15:57.279Z,3.00
2023-02-24T08:18:28.377Z,2.83
2023-02-24T08:21:04.527Z,2.40
2023-02-24T08:23:44.486Z,2.60
2023-02-24T08:26:13.223Z,2.50
2023-02-24T08:28:41.938Z,2.70
2023-02-24T08:31:12.673Z,2.63
2023-02-24T08:33:40.951Z,2.50
2023-02-24T08:36:09.200Z,2.70
2023-02-24T08:38:42.385Z,3.17
2023-02-24T08:41:17.664Z,3.17
2023-02-24T08:43:53.328Z,3.20
2023-02-24T08:46:26.699Z,3.43
2023-02-24T08:48:56.729Z,3.43
2023-02-24T08:51:28.893Z,2.50
2023-02-24T08:53:59.742Z,2.20
2023-02-24T08:56:30.281Z,2.83
2023-02-24T08:59:05.251Z,2.57
2023-02-24T09:01:35.323Z,3.70
2023-02-24T09:04:04.627Z,3.77
2023-02-24T09:06:37.631Z,3.47
2023-02-24T09:09:21.029Z,2.90
2023-02-24T09:11:50.264Z,2.80
2023-02-24T09:14:27.485Z,2.80
2023-02-24T09:17:11.429Z,3.00
2023-02-24T09:19:58.498Z,3.37
2023-02-24T09:22:40.804Z,3.20
2023-02-24T09:25:25.805Z,3.03
2023-02-24T09:27:57.118Z,3.30
2023-02-24T09:30:36.872Z,3.40
2023-02-24T09:33:18.882Z,3.10
2023-02-24T09:35:52.082Z,3.80
2023-02-24T09:38:25.066Z,3.80
2023-02-24T09:40:54.623Z,4.20
2023-02-24T09:43:24.411Z,3.80
2023-02-24T09:45:58.267Z,3.50
2023-02-24T09:48:43.625Z,3.60
2023-02-24T09:51:21.633Z,3.90
2023-02-24T09:53:53.495Z,3.87
2023-02-24T09:56:28.391Z,3.77
2023-02-24T09:58:59.734Z,4.57
2023-02-24T10:01:35.910Z,4.20
2023-02-24T10:04:18.698Z,3.43
2023-02-24T10:06:50.084Z,3.37
2023-02-24T10:09:24.573Z,3.63
2023-02-24T10:11:55.708Z,3.73
2023-02-24T10:14:42.806Z,4.07
2023-02-24T10:17:23.853Z,5.07
2023-02-24T10:20:00.012Z,5.20
2023-02-24T10:22:34.689Z,4.90
2023-02-24T10:25:11.903Z,4.20
2023-02-24T10:27:52.886Z,4.63
2023-02-24T10:30:40.732Z,4.37
2023-02-24T10:33:18.913Z,3.87
2023-02-24T10:35:47.230Z,4.50
2023-02-24T10:38:15.639Z,4.53
2023-02-24T10:40:48.099Z,4.60
2023-02-24T10:43:30.082Z,4.97
2023-02-24T10:46:06.168Z,4.73
2023-02-24T10:48:41.713Z,4.70
2023-02-24T10:51:19.822Z,5.23
2023-02-24T10:53:53.306Z,5.80
2023-02-24T10:56:39.913Z,5.00
2023-02-24T10:59:41.298Z,5.40
2023-02-24T11:02:32.723Z,5.60
2023-02-24T11:05:24.654Z,4.73
2023-02-24T11:07:56.023Z,4.50
2023-02-24T11:10:32.895Z,4.47
2023-02-24T11:13:20.614Z,4.20
2023-02-24T11:16:08.937Z,4.03
2023-02-24T11:18:38.775Z,4.07
2023-02-24T11:21:08.441Z,4.50
2023-02-24T11:23:37.407Z,4.00
2023-02-24T11:26:18.412Z,4.13
2023-02-24T11:28:52.272Z,4.20
2023-02-24T11:31:33.843Z,4.13
2023-02-24T11:34:06.095Z,4.13
2023-02-24T11:36:39.568Z,3.90
2023-02-24T11:39:21.422Z,3.30
2023-02-24T11:41:53.912Z,4.03
2023-02-24T11:44:25.879Z,3.63
2023-02-24T11:46:57.668Z,3.80
2023-02-24T11:49:29.893Z,3.87
2023-02-24T11:51:59.585Z,3.50
2023-02-24T11:54:28.782Z,4.23
2023-02-24T11:56:59.351Z,3.83
2023-02-24T11:59:32.506Z,3.60
2023-02-24T12:02:05.607Z,3.70
2023-02-24T12:04:35.771Z,3.90
2023-02-24T12:07:07.177Z,3.63
2023-02-24T12:09:38.452Z,3.37
2023-02-24T12:12:11.799Z,3.57
2023-02-24T12:14:43.661Z,4.33
2023-02-24T12:17:19.083Z,3.87
2023-02-24T12:19:54.867Z,3.93
2023-02-24T12:22:28.313Z,3.80
2023-02-24T12:24:56.585Z,3.93
2023-02-24T12:27:33.680Z,4.40
2023-02-24T12:30:23.004Z,4.33
2023-02-24T12:33:02.235Z,4.27
2023-02-24T12:35:35.035Z,4.80
2023-02-24T12:38:10.473Z,5.00
2023-02-24T12:40:45.677Z,4.87
2023-02-24T12:43:25.268Z,5.23
2023-02-24T12:45:56.341Z,4.60
2023-02-24T12:48:36.739Z,4.80
2023-02-24T12:51:08.891Z,4.87
2023-02-24T12:53:41.729Z,5.17
2023-02-24T12:56:13.315Z,5.60
2023-02-24T12:58:44.456Z,5.47
2023-02-24T13:01:17.381Z,5.30
2023-02-24T13:03:59.656Z,5.63
2023-02-24T13:06:32.254Z,5.13
2023-02-24T13:09:02.127Z,4.10
2023-02-24T13:11:36.917Z,5.20
2023-02-24T13:14:08.832Z,4.50
2023-02-24T13:16:37.758Z,5.00
2023-02-24T13:19:08.565Z,4.60
2023-02-24T13:21:36.932Z,4.67
2023-02-24T13:24:05.598Z,4.43
2023-02-24T13:26:34.727Z,5.00
2023-02-24T13:29:04.520Z,4.73
2023-02-24T13:31:42.211Z,5.10
2023-02-24T13:34:30.861Z,4.97
2023-02-24T13:36:59.362Z,5.27
2023-02-24T13:39:33.793Z,5.10
2023-02-24T13:42:06.537Z,5.53
2023-02-24T13:44:35.587Z,5.33
2023-02-24T13:47:22.082Z,5.27
2023-02-24T13:49:57.024Z,5.70
2023-02-24T13:52:32.707Z,5.80
2023-02-24T13:55:07.996Z,5.80
2023-02-24T13:57:49.588Z,6.27
2023-02-24T14:00:23.690Z,7.30
2023-02-24T14:02:53.362Z,6.07
2023-02-24T14:05:25.662Z,6.33
2023-02-24T14:07:54.604Z,6.67
2023-02-24T14:10:25.104Z,6.67
2023-02-24T14:12:58.900Z,6.10
2023-02-24T14:15:28.903Z,6.50
2023-02-24T14:17:59.209Z,6.47
2023-02-24T14:20:29.736Z,6.83
2023-02-24T14:22:59.670Z,7.53
2023-02-24T14:25:29.041Z,6.93
2023-02-24T14:27:58.335Z,7.10
2023-02-24T14:30:28.216Z,7.20
2023-02-24T14:32:57.093Z,6.73
2023-02-24T14:35:27.955Z,6.73
2023-02-24T14:37:57.683Z,6.87
2023-02-24T14:40:26.361Z,6.50
2023-02-24T14:42:55.593Z,6.60
2023-02-24T14:45:26.162Z,7.23
2023-02-24T14:47:54.656Z,6.63
2023-02-24T14:50:26.268Z,6.70
2023-02-24T14:52:56.237Z,6.77
2023-02-24T14:55:28.278Z,4.97
2023-02-24T14:57:59.550Z,4.17
2023-02-24T15:00:29.350Z,4.17
2023-02-24T15:03:04.216Z,5.13
2023-02-24T15:05:33.835Z,4.07
2023-02-24T15:08:04.188Z,4.20
2023-02-24T15:10:33.910Z,3.70
2023-02-24T15:13:08.617Z,3.27
2023-02-24T15:15:39.478Z,3.13
2023-02-24T15:18:12.242Z,3.30
2023-02-24T15:20:41.764Z,2.90
2023-02-24T15:23:24.180Z,3.40
2023-02-24T15:25:53.925Z,3.13
2023-02-24T15:28:26.811Z,2.87
2023-02-24T15:31:07.031Z,3.07
2023-02-24T15:33:37.548Z,2.87
2023-02-24T15:36:08.322Z,3.67
2023-02-24T15:38:37.504Z,4.90
2023-02-24T15:41:08.078Z,4.63
2023-02-24T15:43:38.119Z,3.80
2023-02-24T15:46:16.625Z,3.40
2023-02-24T15:48:45.461Z,3.30
2023-02-24T15:51:20.343Z,3.60
2023-02-24T15:53:48.780Z,4.00
2023-02-24T15:56:18.459Z,3.83
2023-02-24T15:58:46.993Z,3.43
2023-02-24T16:01:15.653Z,3.47
2023-02-24T16:03:44.215Z,3.07
2023-02-24T16:06:16.372Z,3.37
2023-02-24T16:08:46.512Z,3.23
2023-02-24T16:11:15.386Z,3.53
2023-02-24T16:13:47.470Z,3.87
2023-02-24T16:16:16.479Z,3.83
2023-02-24T16:18:45.933Z,4.60
2023-02-24T16:21:14.389Z,3.33
2023-02-24T16:23:42.772Z,3.20
2023-02-24T16:26:15.250Z,2.87
2023-02-24T16:28:43.774Z,3.10
2023-02-24T16:31:13.686Z,3.00
2023-02-24T16:33:54.078Z,3.00
2023-02-24T16:36:24.524Z,2.97
2023-02-24T16:38:53.034Z,2.70
2023-02-24T16:41:21.597Z,2.40
2023-02-24T16:43:49.957Z,2.40
2023-02-24T16:46:21.240Z,1.90
2023-02-24T16:48:51.013Z,1.07
2023-02-24T16:51:19.329Z,0.90
2023-02-24T16:53:47.586Z,0.90
2023-02-24T16:56:15.815Z,1.27
2023-02-24T16:58:44.071Z,1.10
2023-02-24T17:01:15.212Z,1.00
2023-02-24T17:03:46.005Z,0.70
2023-02-24T17:06:14.253Z,1.00
2023-02-24T17:08:43.852Z,0.87
2023-02-24T17:11:12.860Z,1.70
2023-02-24T17:13:41.082Z,2.00
2023-02-24T17:16:09.615Z,1.60
2023-02-24T17:18:38.408Z,2.63
2023-02-24T17:21:08.111Z,2.87
2023-02-24T17:23:36.379Z,2.60
2023-02-24T17:26:04.777Z,2.00
2023-02-24T17:28:33.414Z,2.13
2023-02-24T17:31:01.745Z,1.80
2023-02-24T17:33:30.083Z,2.63
2023-02-24T17:35:58.332Z,2.80
2023-02-24T17:38:28.656Z,2.20
2023-02-24T17:40:57.589Z,2.30
2023-02-24T17:43:25.857Z,2.97
2023-02-24T17:45:54.202Z,3.00
2023-02-24T17:48:23.058Z,5.20
2023-02-24T17:50:51.977Z,3.27
2023-02-24T17:53:20.249Z,3.03
2023-02-24T17:56:01.994Z,3.73
2023-02-24T17:58:31.212Z,2.67
2023-02-24T18:01:01.650Z,3.30
2023-02-24T18:03:30.648Z,2.97
2023-02-24T18:06:00.142Z,2.53
2023-02-24T18:08:28.570Z,3.07
2023-02-24T18:10:59.073Z,3.13
2023-02-24T18:13:27.498Z,2.60
2023-02-24T18:15:55.844Z,2.27
2023-02-24T18:18:24.119Z,3.10
2023-02-24T18:20:52.421Z,2.40
2023-02-24T18:23:20.647Z,2.83
2023-02-24T18:25:48.848Z,2.70
2023-02-24T18:28:18.417Z,2.67
2023-02-24T18:30:46.694Z,2.63
2023-02-24T18:33:15.060Z,3.20
2023-02-24T18:35:43.309Z,3.57
2023-02-24T18:38:11.668Z,3.63
2023-02-24T18:40:39.949Z,2.83
2023-02-24T18:43:08.161Z,3.10
2023-02-24T18:45:37.737Z,3.00
2023-02-24T18:48:06.103Z,2.90
2023-02-24T18:50:34.825Z,3.63
2023-02-24T18:53:03.374Z,3.83
2023-02-24T18:55:31.556Z,3.80
2023-02-24T18:57:59.996Z,3.37
2023-02-24T19:00:28.380Z,3.83
2023-02-24T19:02:58.070Z,3.70
2023-02-24T19:05:36.931Z,3.43
2023-02-24T19:08:06.582Z,3.13
2023-02-24T19:10:34.797Z,3.70
2023-02-24T19:13:03.069Z,3.67
2023-02-24T19:15:31.299Z,4.20
2023-02-24T19:18:01.071Z,4.73
2023-02-24T19:20:29.438Z,4.10
2023-02-24T19:22:57.733Z,3.40
2023-02-24T19:25:26.021Z,3.57
2023-02-24T19:27:54.531Z,4.33
2023-02-24T19:30:22.855Z,5.67
2023-02-24T19:32:51.198Z,4.33
2023-02-24T19:35:20.927Z,3.80
2023-02-24T19:37:49.716Z,4.20
2023-02-24T19:40:18.230Z,3.80
2023-02-24T19:42:47.251Z,3.80
2023-02-24T19:45:15.461Z,3.87
2023-02-24T19:47:44.107Z,4.33
2023-02-24T19:50:13.352Z,4.67
2023-02-24T19:52:42.963Z,4.13
2023-02-24T19:55:12.092Z,4.63
2023-02-24T19:57:40.692Z,4.50
2023-02-24T20:00:11.533Z,3.93
2023-02-24T20:02:40.376Z,3.90
2023-02-24T20:05:10.366Z,14.03
2023-02-24T20:07:38.981Z,4.27
2023-02-24T20:10:09.155Z,4.37
2023-02-24T20:12:37.379Z,4.63
2023-02-24T20:15:07.156Z,4.60
2023-02-24T20:17:35.449Z,5.17
2023-02-24T20:20:03.905Z,4.53
2023-02-24T20:22:32.250Z,4.70
2023-02-24T20:25:00.536Z,4.37
2023-02-24T20:27:30.168Z,4.30
2023-02-24T20:29:58.712Z,5.47
2023-02-24T20:32:27.058Z,4.77
2023-02-24T20:34:55.411Z,4.83
2023-02-24T20:37:23.785Z,5.37
2023-02-24T20:39:53.222Z,4.50
2023-02-24T20:42:21.500Z,4.17
2023-02-24T20:44:51.237Z,4.10
2023-02-24T20:47:19.475Z,4.37
2023-02-24T20:49:47.755Z,4.57
2023-02-24T20:52:15.986Z,5.00
2023-02-24T20:54:45.813Z,3.90
2023-02-24T20:57:14.077Z,4.97
2023-02-24T20:59:49.226Z,4.60
2023-02-24T21:02:24.313Z,3.93
2023-02-24T21:04:52.559Z,4.53
2023-02-24T21:07:20.788Z,4.10
2023-02-24T21:09:48.996Z,5.80
2023-02-24T21:12:17.234Z,4.20
2023-02-24T21:14:45.538Z,4.20
2023-02-24T21:17:13.762Z,4.17
2023-02-24T21:19:43.850Z,4.13
2023-02-24T21:22:12.117Z,4.10
2023-02-24T21:24:43.268Z,3.67
2023-02-24T21:27:11.512Z,3.67
2023-02-24T21:29:39.906Z,4.23
2023-02-24T21:32:08.195Z,4.00
2023-02-24T21:34:36.585Z,4.53
2023-02-24T21:37:07.284Z,4.03
2023-02-24T21:39:35.621Z,3.87
2023-02-24T21:42:03.820Z,3.67
2023-02-24T21:44:32.141Z,3.30
2023-02-24T21:47:00.448Z,4.27
2023-02-24T21:49:30.150Z,3.13
2023-02-24T21:51:58.535Z,3.20
2023-02-24T21:54:31.960Z,3.37
2023-02-24T21:57:00.194Z,3.67
2023-02-24T21:59:28.401Z,3.47
2023-02-24T22:01:56.785Z,3.70
2023-02-24T22:04:25.044Z,3.20
2023-02-24T22:06:53.338Z,3.30
2023-02-24T22:09:21.608Z,4.10
2023-02-24T22:11:51.479Z,3.37
2023-02-24T22:14:20.376Z,3.57
2023-02-24T22:16:48.617Z,3.60
2023-02-24T22:19:18.985Z,3.50
2023-02-24T22:21:47.236Z,3.50
2023-02-24T22:24:16.732Z,3.93
2023-02-24T22:26:45.128Z,3.60
2023-02-24T22:29:14.696Z,3.27
2023-02-24T22:31:44.043Z,3.70
2023-02-24T22:34:13.118Z,4.23
2023-02-24T22:36:41.413Z,3.80
2023-02-24T22:39:16.555Z,3.73
2023-02-24T22:41:45.494Z,4.03
2023-02-24T22:44:19.088Z,3.07
2023-02-24T22:46:47.597Z,3.70
2023-02-24T22:49:15.898Z,3.10
2023-02-24T22:51:45.666Z,3.60
2023-02-24T22:54:13.908Z,3.40
2023-02-24T22:56:42.656Z,3.20
2023-02-24T22:59:11.959Z,3.63
2023-02-24T23:01:42.602Z,3.43
2023-02-24T23:04:14.282Z,3.30
2023-02-24T23:06:42.944Z,3.80
2023-02-24T23:09:11.911Z,3.17
2023-02-24T23:11:41.924Z,3.53
2023-02-24T23:14:13.727Z,2.90
2023-02-24T23:16:46.426Z,3.00
2023-02-24T23:19:17.340Z,3.07
2023-02-24T23:21:46.613Z,3.23
2023-02-24T23:24:15.535Z,2.83
2023-02-24T23:26:44.844Z,3.10
2023-02-24T23:29:14.039Z,4.03
2023-02-24T23:31:43.911Z,3.07
2023-02-24T23:34:12.207Z,3.43
2023-02-24T23:36:43.410Z,3.53
2023-02-24T23:39:13.195Z,3.50
2023-02-24T23:41:42.074Z,3.20
2023-02-24T23:44:10.872Z,3.47
2023-02-24T23:46:39.585Z,3.60
2023-02-24T23:49:09.644Z,3.67
2023-02-24T23:51:48.177Z,3.07
2023-02-24T23:54:17.484Z,3.37
2023-02-24T23:56:46.436Z,3.57
2023-02-24T23:59:15.488Z,3.60
